createdAt,value
2018-12-03T00:01:32.204Z,7.78
2018-12-03T00:04:33.040Z,7.62
2018-12-03T00:07:02.321Z,8.08
2018-12-03T00:09:31.892Z,7.42
2018-12-03T00:12:00.769Z,8.30
2018-12-03T00:14:29.739Z,7.53
2018-12-03T00:16:58.666Z,7.83
2018-12-03T00:19:27.918Z,8.18
2018-12-03T00:21:57.204Z,7.40
2018-12-03T00:24:26.113Z,8.48
2018-12-03T00:26:55.042Z,9.03
2018-12-03T00:29:23.995Z,9.23
2018-12-03T00:31:52.888Z,8.43
2018-12-03T00:34:21.773Z,8.20
2018-12-03T00:36:50.865Z,8.10
2018-12-03T00:39:19.790Z,8.53
2018-12-03T00:41:49.055Z,8.30
2018-12-03T00:44:18.152Z,7.58
2018-12-03T00:46:47.046Z,9.38
2018-12-03T00:49:16.387Z,8.58
2018-12-03T00:51:45.366Z,8.10
2018-12-03T00:54:14.261Z,7.33
2018-12-03T00:56:43.154Z,8.68
2018-12-03T00:59:12.142Z,9.20
2018-12-03T01:01:41.050Z,9.93
2018-12-03T01:04:09.952Z,8.38
2018-12-03T01:06:38.906Z,8.60
2018-12-03T01:09:08.774Z,7.87
2018-12-03T01:11:38.083Z,8.33
2018-12-03T01:14:07.167Z,8.63
2018-12-03T01:16:36.099Z,8.75
2018-12-03T01:19:05.279Z,9.38
2018-12-03T01:21:34.267Z,9.85
2018-12-03T01:24:03.182Z,10.38
2018-12-03T01:26:32.077Z,8.85
2018-12-03T01:29:01.050Z,10.65
2018-12-03T01:31:29.942Z,8.65
2018-12-03T01:33:58.832Z,9.60
2018-12-03T01:36:27.859Z,7.72
2018-12-03T01:38:57.114Z,9.20
2018-12-03T01:41:26.288Z,8.38
2018-12-03T01:43:55.484Z,9.10
2018-12-03T01:46:24.704Z,8.98
2018-12-03T01:48:54.014Z,8.50
2018-12-03T01:51:23.613Z,8.53
2018-12-03T01:53:52.688Z,9.48
2018-12-03T01:56:21.618Z,9.25
2018-12-03T01:58:50.593Z,6.20
2018-12-03T02:01:19.502Z,8.13
2018-12-03T02:03:48.411Z,8.50
2018-12-03T02:06:17.422Z,8.95
2018-12-03T02:08:46.314Z,9.00
2018-12-03T02:11:15.246Z,8.43
2018-12-03T02:13:44.219Z,9.08
2018-12-03T02:16:13.174Z,9.00
2018-12-03T02:18:42.097Z,8.45
2018-12-03T02:21:11.072Z,8.70
2018-12-03T02:23:39.972Z,8.78
2018-12-03T02:26:08.848Z,8.70
2018-12-03T02:28:37.797Z,9.85
2018-12-03T02:31:06.703Z,8.50
2018-12-03T02:33:35.604Z,7.45
2018-12-03T02:36:04.589Z,8.40
2018-12-03T02:38:33.505Z,10.60
2018-12-03T02:41:02.392Z,8.90
2018-12-03T02:43:31.394Z,6.37
2018-12-03T02:46:00.274Z,9.30
2018-12-03T02:48:29.176Z,9.20
2018-12-03T02:50:58.140Z,8.90
2018-12-03T02:53:27.395Z,9.20
2018-12-03T02:55:56.290Z,9.73
2018-12-03T02:58:25.285Z,9.40
2018-12-03T03:00:54.377Z,9.28
2018-12-03T03:03:23.678Z,8.70
2018-12-03T03:05:54.083Z,9.03
2018-12-03T03:08:23.282Z,10.38
2018-12-03T03:10:52.483Z,9.33
2018-12-03T03:13:21.642Z,9.38
2018-12-03T03:15:50.869Z,9.03
2018-12-03T03:18:20.090Z,9.00
2018-12-03T03:20:49.231Z,9.25
2018-12-03T03:23:18.115Z,9.80
2018-12-03T03:25:46.994Z,9.70
2018-12-03T03:28:16.025Z,9.25
2018-12-03T03:30:44.918Z,9.08
2018-12-03T03:33:13.842Z,9.03
2018-12-03T03:35:42.811Z,8.83
2018-12-03T03:38:11.723Z,9.75
2018-12-03T03:40:40.658Z,8.90
2018-12-03T03:43:09.615Z,9.25
2018-12-03T03:45:38.700Z,7.37
2018-12-03T03:48:07.823Z,6.70
2018-12-03T03:50:37.071Z,9.03
2018-12-03T03:53:06.269Z,9.83
2018-12-03T03:55:35.722Z,8.90
2018-12-03T03:58:04.936Z,9.28
2018-12-03T04:00:34.071Z,7.50
2018-12-03T04:03:03.167Z,10.00
2018-12-03T04:05:32.249Z,8.73
2018-12-03T04:08:01.219Z,9.13
2018-12-03T04:10:30.469Z,9.68
2018-12-03T04:12:59.640Z,9.23
2018-12-03T04:15:28.545Z,9.40
2018-12-03T04:17:57.532Z,9.20
2018-12-03T04:20:26.547Z,9.60
2018-12-03T04:22:55.870Z,9.95
2018-12-03T04:25:25.261Z,9.30
2018-12-03T04:27:54.379Z,9.10
2018-12-03T04:30:23.537Z,8.70
2018-12-03T04:32:52.979Z,9.68
2018-12-03T04:35:22.239Z,10.60
2018-12-03T04:37:51.229Z,10.10
2018-12-03T04:40:20.140Z,9.90
2018-12-03T04:42:49.122Z,10.28
2018-12-03T04:45:18.679Z,9.70
2018-12-03T04:47:48.378Z,6.53
2018-12-03T04:50:19.777Z,9.55
2018-12-03T04:52:48.693Z,10.18
2018-12-03T04:55:18.187Z,10.60
2018-12-03T04:57:47.578Z,9.45
2018-12-03T05:00:18.281Z,10.30
2018-12-03T05:02:47.916Z,9.95
2018-12-03T05:05:16.802Z,9.60
2018-12-03T05:07:45.718Z,10.55
2018-12-03T05:10:17.361Z,10.15
2018-12-03T05:12:46.902Z,10.75
2018-12-03T05:15:15.904Z,11.73
2018-12-03T05:17:45.059Z,9.33
2018-12-03T05:20:16.634Z,11.45
2018-12-03T05:22:45.636Z,12.25
2018-12-03T05:32:55.327Z,10.28
2018-12-03T05:35:27.933Z,9.13
2018-12-03T05:37:56.906Z,10.08
2018-12-03T05:40:26.770Z,11.22
2018-12-03T05:42:55.756Z,11.12
2018-12-03T05:45:24.934Z,10.18
2018-12-03T05:47:54.169Z,10.93
2018-12-03T05:50:23.275Z,10.10
2018-12-03T05:52:52.263Z,9.30
2018-12-03T05:55:21.397Z,8.48
2018-12-03T05:57:50.425Z,10.03
2018-12-03T06:00:23.846Z,10.38
2018-12-03T06:02:55.698Z,11.53
2018-12-03T06:05:24.768Z,11.18
2018-12-03T06:07:53.738Z,10.90
2018-12-03T06:10:25.723Z,11.63
2018-12-03T06:12:54.760Z,7.85
2018-12-03T06:15:23.722Z,10.63
2018-12-03T06:17:53.360Z,10.85
2018-12-03T06:20:22.779Z,10.03
2018-12-03T06:22:52.414Z,10.53
2018-12-03T06:25:23.320Z,11.15
2018-12-03T06:27:52.490Z,10.20
2018-12-03T06:30:22.559Z,11.68
2018-12-03T06:32:52.888Z,10.70
2018-12-03T06:35:22.338Z,9.68
2018-12-03T06:37:51.499Z,9.48
2018-12-03T06:40:21.248Z,9.10
2018-12-03T06:42:50.861Z,10.43
2018-12-03T06:45:20.432Z,9.98
2018-12-03T06:47:53.355Z,9.28
2018-12-03T06:50:22.451Z,9.93
2018-12-03T06:52:51.521Z,9.98
2018-12-03T06:55:20.718Z,10.50
2018-12-03T06:57:49.982Z,8.53
2018-12-03T07:00:20.923Z,10.20
2018-12-03T07:02:50.184Z,9.30
2018-12-03T07:05:19.315Z,8.90
2018-12-03T07:07:48.854Z,10.68
2018-12-03T07:10:18.607Z,10.78
2018-12-03T07:12:48.305Z,12.05
2018-12-03T07:15:18.330Z,9.60
2018-12-03T07:17:47.507Z,9.05
2018-12-03T07:20:16.918Z,10.45
2018-12-03T07:22:45.998Z,9.93
2018-12-03T07:25:15.252Z,9.93
2018-12-03T07:27:44.318Z,10.78
2018-12-03T07:30:14.528Z,10.75
2018-12-03T07:32:44.067Z,12.00
2018-12-03T07:35:13.217Z,10.05
2018-12-03T07:37:42.236Z,13.15
2018-12-03T07:40:13.994Z,11.25
2018-12-03T07:46:30.597Z,12.33
2018-12-03T07:48:59.694Z,9.45
2018-12-03T07:51:28.663Z,9.53
2018-12-03T07:53:57.730Z,8.80
2018-12-03T07:56:26.775Z,10.05
2018-12-03T07:58:56.337Z,10.45
2018-12-03T08:01:25.460Z,10.75
2018-12-03T08:03:54.350Z,9.73
2018-12-03T08:06:23.575Z,8.83
2018-12-03T08:08:52.600Z,9.50
2018-12-03T08:11:21.499Z,9.68
2018-12-03T08:13:50.390Z,9.58
2018-12-03T08:16:19.362Z,8.18
2018-12-03T08:18:48.282Z,10.03
2018-12-03T08:21:17.247Z,9.13
2018-12-03T08:23:47.606Z,9.28
2018-12-03T08:26:16.554Z,8.60
2018-12-03T08:28:45.483Z,8.05
2018-12-03T08:31:14.473Z,7.83
2018-12-03T08:33:43.383Z,9.13
2018-12-03T08:36:12.339Z,8.03
2018-12-03T08:38:41.610Z,10.35
2018-12-03T08:41:10.564Z,10.50
2018-12-03T08:43:40.033Z,8.13
2018-12-03T08:46:10.842Z,10.05
2018-12-03T08:48:40.282Z,6.60
2018-12-03T08:51:09.407Z,8.75
2018-12-03T08:53:38.418Z,8.03
2018-12-03T08:56:07.567Z,9.53
2018-12-03T08:58:36.555Z,8.48
2018-12-03T09:01:09.448Z,9.70
2018-12-03T09:03:38.485Z,9.73
2018-12-03T09:06:09.390Z,8.63
2018-12-03T09:08:38.355Z,9.13
2018-12-03T09:11:08.428Z,8.68
2018-12-03T09:13:37.510Z,8.23
2018-12-03T09:16:06.558Z,7.22
2018-12-03T09:18:37.076Z,7.28
2018-12-03T09:21:22.283Z,7.53
2018-12-03T09:23:53.315Z,7.55
2018-12-03T09:26:22.242Z,7.72
2018-12-03T09:28:51.325Z,8.53
2018-12-03T09:31:21.165Z,7.70
2018-12-03T09:33:52.362Z,8.63
2018-12-03T09:36:21.690Z,9.30
2018-12-03T09:38:57.946Z,8.78
2018-12-03T09:41:27.925Z,8.38
2018-12-03T09:43:57.220Z,7.65
2018-12-03T09:46:26.145Z,8.88
2018-12-03T09:48:56.103Z,8.85
2018-12-03T09:51:29.227Z,9.18
2018-12-03T09:53:58.572Z,10.45
2018-12-03T09:56:29.815Z,9.83
2018-12-03T09:58:58.780Z,8.58
2018-12-03T10:01:27.730Z,9.05
2018-12-03T10:03:56.719Z,9.20
2018-12-03T10:06:25.775Z,8.70
2018-12-03T10:08:54.735Z,8.55
2018-12-03T10:11:23.657Z,9.13
2018-12-03T10:13:52.802Z,8.65
2018-12-03T10:16:21.674Z,9.23
2018-12-03T10:18:50.629Z,9.08
2018-12-03T10:21:20.098Z,9.45
2018-12-03T10:23:49.237Z,9.40
2018-12-03T10:26:18.234Z,8.55
2018-12-03T10:28:47.227Z,8.68
2018-12-03T10:31:16.223Z,8.18
2018-12-03T10:33:45.238Z,8.30
2018-12-03T10:36:14.288Z,8.35
2018-12-03T10:38:44.346Z,8.13
2018-12-03T10:41:20.561Z,8.13
2018-12-03T10:43:49.540Z,9.08
2018-12-03T10:46:18.960Z,8.30
2018-12-03T10:48:48.009Z,7.95
2018-12-03T10:51:17.853Z,7.83
2018-12-03T10:53:46.847Z,8.20
2018-12-03T10:56:17.326Z,8.43
2018-12-03T10:58:47.055Z,7.45
2018-12-03T11:01:22.897Z,8.05
2018-12-03T11:04:00.284Z,7.83
2018-12-03T11:06:29.676Z,8.10
2018-12-03T11:08:58.647Z,7.50
2018-12-03T11:11:27.746Z,7.95
2018-12-03T11:14:04.454Z,8.53
2018-12-03T11:16:35.446Z,7.20
2018-12-03T11:19:04.572Z,8.30
2018-12-03T11:21:33.647Z,7.20
2018-12-03T11:24:02.617Z,7.45
2018-12-03T11:26:34.626Z,7.62
2018-12-03T11:29:03.878Z,7.60
2018-12-03T11:31:33.598Z,7.95
2018-12-03T11:34:02.579Z,7.37
2018-12-03T11:36:39.157Z,6.83
2018-12-03T11:39:21.813Z,6.42
2018-12-03T11:41:54.538Z,7.78
2018-12-03T11:44:23.554Z,6.62
2018-12-03T11:46:52.868Z,7.80
2018-12-03T11:49:22.218Z,6.97
2018-12-03T11:51:51.207Z,7.33
2018-12-03T11:54:20.171Z,6.62
2018-12-03T11:56:49.161Z,7.28
2018-12-03T11:59:18.161Z,5.95
2018-12-03T12:01:47.115Z,6.75
2018-12-03T12:04:16.096Z,6.90
2018-12-03T12:06:45.117Z,6.75
2018-12-03T12:09:14.080Z,6.20
2018-12-03T12:11:43.090Z,5.72
2018-12-03T12:14:24.444Z,6.47
2018-12-03T12:16:53.431Z,7.62
2018-12-03T12:19:22.422Z,5.78
2018-12-03T12:21:52.903Z,8.43
2018-12-03T12:24:21.888Z,6.15
2018-12-03T12:33:54.942Z,6.28
2018-12-03T12:36:24.171Z,6.08
2018-12-03T12:38:53.141Z,5.85
2018-12-03T12:41:22.308Z,6.22
2018-12-03T12:43:51.204Z,6.33
2018-12-03T12:46:21.746Z,7.20
2018-12-03T12:48:51.767Z,7.70
2018-12-03T12:51:20.793Z,6.55
2018-12-03T12:53:49.804Z,6.47
2018-12-03T12:56:18.822Z,6.50
2018-12-03T12:58:47.983Z,7.42
2018-12-03T13:01:17.050Z,6.70
2018-12-03T13:03:47.821Z,6.47
2018-12-03T13:06:17.683Z,6.85
2018-12-03T13:08:46.656Z,6.70
2018-12-03T13:11:15.726Z,6.92
2018-12-03T13:13:44.843Z,7.28
2018-12-03T13:16:14.074Z,6.65
2018-12-03T13:18:43.407Z,6.78
2018-12-03T13:21:12.872Z,8.25
2018-12-03T13:23:42.334Z,7.60
2018-12-03T13:26:11.406Z,8.45
2018-12-03T13:28:40.447Z,7.28
2018-12-03T13:31:09.586Z,6.60
2018-12-03T13:33:38.512Z,7.45
2018-12-03T13:36:08.732Z,6.35
2018-12-03T13:38:37.755Z,7.20
2018-12-03T13:41:06.908Z,7.17
2018-12-03T13:43:36.037Z,7.67
2018-12-03T13:46:05.378Z,7.30
2018-12-03T13:48:34.433Z,8.33
2018-12-03T13:51:04.353Z,7.37
2018-12-03T13:53:33.465Z,7.30
2018-12-03T13:56:02.458Z,7.10
2018-12-03T13:58:31.513Z,6.67
2018-12-03T14:01:00.414Z,7.50
2018-12-03T14:03:30.405Z,7.78
2018-12-03T14:06:05.059Z,7.42
2018-12-03T14:08:41.699Z,7.67
2018-12-03T14:11:14.317Z,7.72
2018-12-03T14:13:52.672Z,7.92
2018-12-03T14:16:55.693Z,7.78
2018-12-03T14:19:26.005Z,7.87
2018-12-03T14:22:28.065Z,8.65
2018-12-03T14:24:57.113Z,7.85
2018-12-03T14:27:26.063Z,7.95
2018-12-03T14:29:55.150Z,9.00
2018-12-03T14:32:24.140Z,8.80
2018-12-03T14:41:56.811Z,7.85
2018-12-03T14:44:25.983Z,8.63
2018-12-03T14:46:55.015Z,8.83
2018-12-03T14:49:24.070Z,8.75
2018-12-03T14:51:53.419Z,8.78
2018-12-03T14:54:23.451Z,8.48
2018-12-03T14:56:52.450Z,9.00
2018-12-03T14:59:22.498Z,8.28
2018-12-03T15:01:51.689Z,8.83
2018-12-03T15:04:20.763Z,8.65
2018-12-03T15:06:49.799Z,9.28
2018-12-03T15:09:18.858Z,9.60
2018-12-03T15:11:48.146Z,8.60
2018-12-03T15:14:17.216Z,8.58
2018-12-03T15:16:46.341Z,9.73
2018-12-03T15:19:15.277Z,10.18
2018-12-03T15:21:44.260Z,12.07
2018-12-03T15:24:13.523Z,10.60
2018-12-03T15:26:42.681Z,11.48
2018-12-03T15:29:11.727Z,12.18
2018-12-03T15:31:40.688Z,11.35
2018-12-03T15:34:10.668Z,11.88
2018-12-03T15:36:39.692Z,12.28
2018-12-03T15:39:09.741Z,11.88
2018-12-03T15:41:38.699Z,11.35
2018-12-03T15:44:07.650Z,12.60
2018-12-03T15:46:36.654Z,11.03
2018-12-03T15:49:05.660Z,10.40
2018-12-03T15:51:34.571Z,12.37
2018-12-03T15:54:04.232Z,12.55
2018-12-03T15:56:33.162Z,12.28
2018-12-03T15:59:02.055Z,10.63
2018-12-03T16:01:31.613Z,12.70
2018-12-03T16:04:00.511Z,13.15
2018-12-03T16:06:29.413Z,13.20
2018-12-03T16:08:58.412Z,13.40
2018-12-03T16:11:27.373Z,12.50
2018-12-03T16:13:56.280Z,11.88
2018-12-03T16:16:25.286Z,12.03
2018-12-03T16:18:54.345Z,12.28
2018-12-03T16:21:23.214Z,11.18
2018-12-03T16:23:53.218Z,11.35
2018-12-03T16:26:22.091Z,11.00
2018-12-03T16:28:51.026Z,9.15
2018-12-03T16:31:20.047Z,11.83
2018-12-03T16:33:48.919Z,8.93
2018-12-03T16:36:18.341Z,10.32
2018-12-03T16:38:47.319Z,10.70
2018-12-03T16:41:16.559Z,13.43
2018-12-03T16:43:45.684Z,11.38
2018-12-03T16:46:14.664Z,11.93
2018-12-03T16:48:43.631Z,12.03
2018-12-03T16:51:12.576Z,11.90
2018-12-03T16:53:41.714Z,12.25
2018-12-03T16:56:11.059Z,12.40
2018-12-03T16:58:39.971Z,12.95
2018-12-03T17:01:08.966Z,11.78
2018-12-03T17:03:37.940Z,12.98
2018-12-03T17:06:06.961Z,12.80
2018-12-03T17:08:35.995Z,9.63
2018-12-03T17:11:04.883Z,11.30
2018-12-03T17:13:33.922Z,12.90
2018-12-03T17:16:03.018Z,12.88
2018-12-03T17:18:32.044Z,7.67
2018-12-03T17:21:08.743Z,11.78
2018-12-03T17:24:12.365Z,11.63
2018-12-03T17:26:41.839Z,12.15
2018-12-03T17:29:10.854Z,13.05
2018-12-03T17:31:39.954Z,12.45
2018-12-03T17:34:09.048Z,12.50
2018-12-03T17:36:38.210Z,11.70
2018-12-03T17:39:07.918Z,12.70
2018-12-03T17:41:37.055Z,13.20
2018-12-03T17:44:06.345Z,14.43
2018-12-03T17:46:35.291Z,12.73
2018-12-03T17:49:04.322Z,13.93
2018-12-03T17:51:33.291Z,13.53
2018-12-03T17:54:02.242Z,14.13
2018-12-03T17:56:31.610Z,14.78
2018-12-03T17:59:00.518Z,12.85
2018-12-03T18:01:29.554Z,15.00
2018-12-03T18:03:58.581Z,15.45
2018-12-03T18:06:27.547Z,13.28
2018-12-03T18:08:56.518Z,12.65
2018-12-03T18:11:25.590Z,15.25
2018-12-03T18:13:54.582Z,15.30
2018-12-03T18:16:23.511Z,14.45
2018-12-03T18:18:52.653Z,14.55
2018-12-03T18:21:22.562Z,16.20
2018-12-03T18:23:57.734Z,14.78
2018-12-03T18:26:33.362Z,15.60
2018-12-03T18:29:02.451Z,15.98
2018-12-03T18:31:31.374Z,14.90
2018-12-03T18:34:00.262Z,16.25
2018-12-03T18:36:29.230Z,14.90
2018-12-03T18:38:58.134Z,16.55
2018-12-03T18:41:27.037Z,15.78
2018-12-03T18:43:56.103Z,14.30
2018-12-03T18:46:25.039Z,15.43
2018-12-03T18:48:56.846Z,14.83
2018-12-03T18:51:26.788Z,16.60
2018-12-03T18:53:55.745Z,15.60
2018-12-03T18:56:24.805Z,15.53
2018-12-03T18:59:02.634Z,15.75
2018-12-03T19:01:31.671Z,15.60
2018-12-03T19:04:02.297Z,15.05
2018-12-03T19:06:31.650Z,14.90
2018-12-03T19:09:00.656Z,16.17
2018-12-03T19:11:29.533Z,14.83
2018-12-03T19:13:58.786Z,13.75
2018-12-03T19:16:27.699Z,14.93
2018-12-03T19:18:56.583Z,16.32
2018-12-03T19:21:25.555Z,15.43
2018-12-03T19:23:54.554Z,13.85
2018-12-03T19:26:23.490Z,14.07
2018-12-03T19:28:52.482Z,15.48
2018-12-03T19:31:21.374Z,17.77
2018-12-03T19:33:50.279Z,14.25
2018-12-03T19:36:19.274Z,15.28
2018-12-03T19:38:48.908Z,14.73
2018-12-03T19:41:17.947Z,14.47
2018-12-03T19:43:46.948Z,14.15
2018-12-03T19:46:15.907Z,14.40
2018-12-03T19:48:44.818Z,16.07
2018-12-03T19:51:13.812Z,17.30
2018-12-03T19:53:42.702Z,16.35
2018-12-03T19:56:12.423Z,15.75
2018-12-03T19:58:42.647Z,17.57
2018-12-03T20:01:11.956Z,15.78
2018-12-03T20:03:40.889Z,17.82
2018-12-03T20:06:09.939Z,15.10
2018-12-03T20:08:38.999Z,17.35
2018-12-03T20:11:08.338Z,15.78
2018-12-03T20:13:37.332Z,16.45
2018-12-03T20:16:06.271Z,15.95
2018-12-03T20:18:35.226Z,16.73
2018-12-03T20:21:10.400Z,15.25
2018-12-03T20:24:10.864Z,15.93
2018-12-03T20:26:48.227Z,15.03
2018-12-03T20:29:25.401Z,16.52
2018-12-03T20:32:10.831Z,14.38
2018-12-03T20:34:42.501Z,15.85
2018-12-03T20:37:19.711Z,14.93
2018-12-03T20:40:07.651Z,15.18
2018-12-03T20:42:37.962Z,15.13
2018-12-03T20:45:11.163Z,14.70
2018-12-03T20:47:41.114Z,15.32
2018-12-03T20:50:15.887Z,15.00
2018-12-03T20:55:19.536Z,16.12
2018-12-03T20:57:43.153Z,15.30
2018-12-03T20:57:49.546Z,15.55
2018-12-03T21:00:18.746Z,15.88
2018-12-03T21:02:48.587Z,15.18
2018-12-03T21:05:17.533Z,15.60
2018-12-03T21:07:46.430Z,16.15
2018-12-03T21:10:15.409Z,15.83
2018-12-03T21:12:44.363Z,16.77
2018-12-03T21:15:13.263Z,15.28
2018-12-03T21:17:42.132Z,16.15
2018-12-03T21:20:13.820Z,17.12
2018-12-03T21:22:42.682Z,17.98
2018-12-03T21:25:11.636Z,16.12
2018-12-03T21:27:40.612Z,17.52
2018-12-03T21:30:10.370Z,17.42
2018-12-03T21:32:39.274Z,16.52
2018-12-03T21:35:08.294Z,16.12
2018-12-03T21:37:37.187Z,15.95
2018-12-03T21:40:07.012Z,17.27
2018-12-03T21:42:36.043Z,15.55
2018-12-03T21:45:05.460Z,17.52
2018-12-03T21:47:34.338Z,16.52
2018-12-03T21:50:05.879Z,16.10
2018-12-03T21:52:34.289Z,15.88
2018-12-03T21:55:03.252Z,15.15
2018-12-03T21:57:32.212Z,16.05
2018-12-03T22:00:01.130Z,16.35
2018-12-03T22:02:30.136Z,16.97
2018-12-03T22:05:00.534Z,15.05
2018-12-03T22:07:29.416Z,14.73
2018-12-03T22:09:58.401Z,17.23
2018-12-03T22:12:27.346Z,16.87
2018-12-03T22:14:56.227Z,16.12
2018-12-03T22:17:26.307Z,16.50
2018-12-03T22:19:55.175Z,16.60
2018-12-03T22:22:24.048Z,16.45
2018-12-03T22:24:53.036Z,17.67
2018-12-03T22:27:21.991Z,17.85
2018-12-03T22:29:50.889Z,16.17
2018-12-03T22:32:19.862Z,17.80
2018-12-03T22:34:48.737Z,16.12
2018-12-03T22:37:17.649Z,17.15
2018-12-03T22:39:46.700Z,16.67
2018-12-03T22:42:15.804Z,18.55
2018-12-03T22:44:44.731Z,16.23
2018-12-03T22:47:13.687Z,15.88
2018-12-03T22:49:42.551Z,17.60
2018-12-03T22:52:11.430Z,17.02
2018-12-03T22:54:40.451Z,19.20
2018-12-03T22:57:09.419Z,17.73
2018-12-03T22:59:38.383Z,17.20
2018-12-03T23:02:07.514Z,16.97
2018-12-03T23:04:48.159Z,17.45
2018-12-03T23:07:17.481Z,17.17
2018-12-03T23:09:46.374Z,15.80
2018-12-03T23:12:15.262Z,18.75
2018-12-03T23:14:44.198Z,18.65
2018-12-03T23:17:13.098Z,17.25
2018-12-03T23:19:41.987Z,16.65
2018-12-03T23:22:10.950Z,17.80
2018-12-03T23:24:39.839Z,16.25
2018-12-03T23:27:08.778Z,19.32
2018-12-03T23:29:37.862Z,16.30
2018-12-03T23:32:06.754Z,18.05
2018-12-03T23:34:35.642Z,19.92
2018-12-03T23:37:04.672Z,16.85
2018-12-03T23:39:35.520Z,18.45
2018-12-03T23:42:04.476Z,18.95
2018-12-03T23:44:33.362Z,18.00
2018-12-03T23:47:02.289Z,19.95
2018-12-03T23:49:31.235Z,16.77
2018-12-03T23:52:00.118Z,18.80
2018-12-03T23:54:29.015Z,18.42
2018-12-03T23:56:58.028Z,17.30
2018-12-03T23:59:26.970Z,16.85
